sensor_id;sensor_type;location;lat;lon;timestamp;P1;durP1;ratioP1;P2;durP2;ratioP2
16440;SDS011;8330;-33.858;151.184;2023-04-24T00:02:14;3.95;;;0.88;;
16440;SDS011;8330;-33.858;151.184;2023-04-24T00:04:45;2.70;;;0.80;;
16440;SDS011;8330;-33.858;151.184;2023-04-24T00:07:15;2.75;;;0.70;;
16440;SDS011;8330;-33.858;151.184;2023-04-24T00:09:47;5.18;;;0.73;;
16440;SDS011;8330;-33.858;151.184;2023-04-24T00:12:17;3.05;;;0.80;;
16440;SDS011;8330;-33.858;151.184;2023-04-24T00:14:48;4.13;;;0.63;;
16440;SDS011;8330;-33.858;151.184;2023-04-24T00:17:21;3.78;;;1.00;;
16440;SDS011;8330;-33.858;151.184;2023-04-24T00:19:53;2.72;;;0.65;;
16440;SDS011;8330;-33.858;151.184;2023-04-24T00:22:25;3.00;;;0.60;;
16440;SDS011;8330;-33.858;151.184;2023-04-24T00:24:56;3.03;;;0.60;;
16440;SDS011;8330;-33.858;151.184;2023-04-24T00:27:28;3.83;;;0.90;;
16440;SDS011;8330;-33.858;151.184;2023-04-24T00:29:59;2.00;;;0.73;;
16440;SDS011;8330;-33.858;151.184;2023-04-24T00:32:32;3.88;;;0.75;;
16440;SDS011;8330;-33.858;151.184;2023-04-24T00:35:03;3.15;;;0.80;;
16440;SDS011;8330;-33.858;151.184;2023-04-24T00:37:35;2.65;;;0.80;;
16440;SDS011;8330;-33.858;151.184;2023-04-24T00:40:06;2.08;;;0.70;;
16440;SDS011;8330;-33.858;151.184;2023-04-24T00:42:38;3.47;;;0.77;;
16440;SDS011;8330;-33.858;151.184;2023-04-24T00:45:09;4.47;;;1.00;;
16440;SDS011;8330;-33.858;151.184;2023-04-24T00:47:43;3.85;;;1.05;;
16440;SDS011;8330;-33.858;151.184;2023-04-24T00:50:14;4.28;;;0.80;;
16440;SDS011;8330;-33.858;151.184;2023-04-24T00:52:45;3.75;;;0.90;;
16440;SDS011;8330;-33.858;151.184;2023-04-24T00:55:17;2.78;;;0.80;;
16440;SDS011;8330;-33.858;151.184;2023-04-24T00:57:49;5.63;;;0.98;;
16440;SDS011;8330;-33.858;151.184;2023-04-24T01:00:21;3.72;;;0.88;;
16440;SDS011;8330;-33.858;151.184;2023-04-24T01:02:55;3.35;;;0.88;;
16440;SDS011;8330;-33.858;151.184;2023-04-24T01:05:28;5.40;;;1.02;;
16440;SDS011;8330;-33.858;151.184;2023-04-24T01:07:59;3.95;;;0.75;;
16440;SDS011;8330;-33.858;151.184;2023-04-24T01:10:32;3.67;;;0.82;;
16440;SDS011;8330;-33.858;151.184;2023-04-24T01:13:05;4.28;;;0.90;;
16440;SDS011;8330;-33.858;151.184;2023-04-24T01:15:37;1.83;;;0.80;;
16440;SDS011;8330;-33.858;151.184;2023-04-24T01:18:10;3.83;;;0.88;;
16440;SDS011;8330;-33.858;151.184;2023-04-24T01:20:41;6.32;;;1.15;;
16440;SDS011;8330;-33.858;151.184;2023-04-24T01:23:16;2.95;;;0.93;;
16440;SDS011;8330;-33.858;151.184;2023-04-24T01:25:47;2.30;;;1.00;;
16440;SDS011;8330;-33.858;151.184;2023-04-24T01:28:18;3.80;;;1.00;;
16440;SDS011;8330;-33.858;151.184;2023-04-24T01:30:49;4.68;;;1.08;;
16440;SDS011;8330;-33.858;151.184;2023-04-24T01:33:21;6.35;;;1.00;;
16440;SDS011;8330;-33.858;151.184;2023-04-24T01:35:52;4.47;;;1.13;;
16440;SDS011;8330;-33.858;151.184;2023-04-24T01:38:25;3.33;;;0.85;;
16440;SDS011;8330;-33.858;151.184;2023-04-24T01:40:56;4.05;;;1.10;;
16440;SDS011;8330;-33.858;151.184;2023-04-24T01:43:27;2.83;;;0.90;;
16440;SDS011;8330;-33.858;151.184;2023-04-24T01:45:58;2.15;;;0.70;;
16440;SDS011;8330;-33.858;151.184;2023-04-24T01:48:29;2.05;;;0.80;;
16440;SDS011;8330;-33.858;151.184;2023-04-24T01:51:00;3.58;;;1.02;;
16440;SDS011;8330;-33.858;151.184;2023-04-24T01:53:33;3.53;;;0.88;;
16440;SDS011;8330;-33.858;151.184;2023-04-24T01:56:04;4.68;;;0.98;;
16440;SDS011;8330;-33.858;151.184;2023-04-24T01:58:35;4.68;;;1.35;;
16440;SDS011;8330;-33.858;151.184;2023-04-24T02:01:07;5.15;;;1.10;;
16440;SDS011;8330;-33.858;151.184;2023-04-24T02:03:38;6.72;;;1.60;;
16440;SDS011;8330;-33.858;151.184;2023-04-24T02:06:09;6.95;;;1.75;;
16440;SDS011;8330;-33.858;151.184;2023-04-24T02:08:42;7.53;;;1.80;;
16440;SDS011;8330;-33.858;151.184;2023-04-24T02:11:13;7.22;;;1.90;;
16440;SDS011;8330;-33.858;151.184;2023-04-24T02:13:44;7.70;;;1.90;;
16440;SDS011;8330;-33.858;151.184;2023-04-24T02:16:16;7.68;;;2.28;;
16440;SDS011;8330;-33.858;151.184;2023-04-24T02:18:48;7.40;;;1.88;;
16440;SDS011;8330;-33.858;151.184;2023-04-24T02:21:18;9.52;;;2.05;;
16440;SDS011;8330;-33.858;151.184;2023-04-24T02:23:51;9.18;;;1.90;;
16440;SDS011;8330;-33.858;151.184;2023-04-24T02:26:21;8.70;;;1.85;;
16440;SDS011;8330;-33.858;151.184;2023-04-24T02:28:53;9.82;;;1.77;;
16440;SDS011;8330;-33.858;151.184;2023-04-24T02:31:24;6.93;;;1.70;;
16440;SDS011;8330;-33.858;151.184;2023-04-24T02:33:58;6.55;;;1.73;;
16440;SDS011;8330;-33.858;151.184;2023-04-24T02:36:29;6.82;;;1.63;;
16440;SDS011;8330;-33.858;151.184;2023-04-24T02:39:02;7.68;;;2.00;;
16440;SDS011;8330;-33.858;151.184;2023-04-24T02:41:33;10.40;;;2.00;;
16440;SDS011;8330;-33.858;151.184;2023-04-24T02:44:05;7.47;;;1.90;;
16440;SDS011;8330;-33.858;151.184;2023-04-24T02:46:36;9.30;;;1.83;;
16440;SDS011;8330;-33.858;151.184;2023-04-24T02:49:07;7.68;;;1.85;;
16440;SDS011;8330;-33.858;151.184;2023-04-24T02:51:38;6.70;;;2.00;;
16440;SDS011;8330;-33.858;151.184;2023-04-24T02:54:11;7.00;;;1.70;;
16440;SDS011;8330;-33.858;151.184;2023-04-24T02:56:42;5.53;;;1.52;;
16440;SDS011;8330;-33.858;151.184;2023-04-24T02:59:13;7.78;;;1.58;;
16440;SDS011;8330;-33.858;151.184;2023-04-24T03:01:44;6.55;;;1.75;;
16440;SDS011;8330;-33.858;151.184;2023-04-24T03:04:15;6.18;;;1.73;;
16440;SDS011;8330;-33.858;151.184;2023-04-24T03:06:46;8.10;;;1.63;;
16440;SDS011;8330;-33.858;151.184;2023-04-24T03:09:20;6.47;;;1.50;;
16440;SDS011;8330;-33.858;151.184;2023-04-24T03:11:51;7.13;;;1.40;;
16440;SDS011;8330;-33.858;151.184;2023-04-24T03:14:22;6.70;;;1.83;;
16440;SDS011;8330;-33.858;151.184;2023-04-24T03:16:53;8.52;;;1.70;;
16440;SDS011;8330;-33.858;151.184;2023-04-24T03:19:24;9.20;;;1.80;;
16440;SDS011;8330;-33.858;151.184;2023-04-24T03:21:56;8.68;;;1.92;;
16440;SDS011;8330;-33.858;151.184;2023-04-24T03:24:29;5.13;;;1.70;;
16440;SDS011;8330;-33.858;151.184;2023-04-24T03:27:00;5.78;;;1.67;;
16440;SDS011;8330;-33.858;151.184;2023-04-24T03:29:31;8.25;;;2.00;;
16440;SDS011;8330;-33.858;151.184;2023-04-24T03:32:02;6.57;;;1.77;;
16440;SDS011;8330;-33.858;151.184;2023-04-24T03:34:33;7.13;;;2.05;;
16440;SDS011;8330;-33.858;151.184;2023-04-24T03:37:04;8.18;;;1.80;;
16440;SDS011;8330;-33.858;151.184;2023-04-24T03:39:37;4.65;;;1.50;;
16440;SDS011;8330;-33.858;151.184;2023-04-24T03:42:08;7.90;;;1.80;;
16440;SDS011;8330;-33.858;151.184;2023-04-24T03:44:39;10.40;;;2.30;;
16440;SDS011;8330;-33.858;151.184;2023-04-24T03:47:10;6.28;;;1.90;;
16440;SDS011;8330;-33.858;151.184;2023-04-24T03:49:50;7.18;;;1.90;;
16440;SDS011;8330;-33.858;151.184;2023-04-24T03:52:24;6.80;;;1.88;;
16440;SDS011;8330;-33.858;151.184;2023-04-24T03:55:03;8.02;;;2.05;;
16440;SDS011;8330;-33.858;151.184;2023-04-24T03:57:35;7.65;;;1.63;;
16440;SDS011;8330;-33.858;151.184;2023-04-24T04:00:08;6.55;;;1.65;;
16440;SDS011;8330;-33.858;151.184;2023-04-24T04:02:40;8.27;;;2.03;;
16440;SDS011;8330;-33.858;151.184;2023-04-24T04:05:13;7.53;;;1.60;;
16440;SDS011;8330;-33.858;151.184;2023-04-24T04:07:44;7.82;;;2.13;;
16440;SDS011;8330;-33.858;151.184;2023-04-24T04:10:17;7.55;;;1.90;;
16440;SDS011;8330;-33.858;151.184;2023-04-24T04:12:51;6.43;;;1.70;;
16440;SDS011;8330;-33.858;151.184;2023-04-24T04:15:24;6.28;;;1.60;;
16440;SDS011;8330;-33.858;151.184;2023-04-24T04:18:05;5.70;;;1.73;;
16440;SDS011;8330;-33.858;151.184;2023-04-24T04:20:37;7.28;;;2.10;;
16440;SDS011;8330;-33.858;151.184;2023-04-24T04:23:09;7.88;;;1.73;;
16440;SDS011;8330;-33.858;151.184;2023-04-24T04:25:43;9.50;;;1.60;;
16440;SDS011;8330;-33.858;151.184;2023-04-24T04:28:14;9.63;;;1.75;;
16440;SDS011;8330;-33.858;151.184;2023-04-24T04:30:46;6.80;;;1.70;;
16440;SDS011;8330;-33.858;151.184;2023-04-24T04:33:19;8.93;;;2.35;;
16440;SDS011;8330;-33.858;151.184;2023-04-24T04:35:51;8.35;;;1.77;;
16440;SDS011;8330;-33.858;151.184;2023-04-24T04:38:24;10.25;;;2.03;;
16440;SDS011;8330;-33.858;151.184;2023-04-24T04:40:58;8.50;;;2.38;;
16440;SDS011;8330;-33.858;151.184;2023-04-24T04:43:29;6.50;;;1.83;;
16440;SDS011;8330;-33.858;151.184;2023-04-24T04:46:00;10.57;;;2.30;;
16440;SDS011;8330;-33.858;151.184;2023-04-24T04:48:31;13.65;;;2.97;;
16440;SDS011;8330;-33.858;151.184;2023-04-24T04:51:03;10.52;;;2.03;;
16440;SDS011;8330;-33.858;151.184;2023-04-24T04:53:34;15.88;;;2.72;;
16440;SDS011;8330;-33.858;151.184;2023-04-24T04:56:08;9.60;;;2.30;;
16440;SDS011;8330;-33.858;151.184;2023-04-24T04:58:39;12.43;;;2.20;;
16440;SDS011;8330;-33.858;151.184;2023-04-24T05:01:10;11.25;;;2.70;;
16440;SDS011;8330;-33.858;151.184;2023-04-24T05:03:41;9.00;;;2.28;;
16440;SDS011;8330;-33.858;151.184;2023-04-24T05:06:12;14.80;;;2.47;;
16440;SDS011;8330;-33.858;151.184;2023-04-24T05:08:43;11.05;;;2.67;;
16440;SDS011;8330;-33.858;151.184;2023-04-24T05:11:16;11.70;;;2.30;;
16440;SDS011;8330;-33.858;151.184;2023-04-24T05:13:49;9.45;;;2.22;;
16440;SDS011;8330;-33.858;151.184;2023-04-24T05:16:21;9.32;;;2.50;;
16440;SDS011;8330;-33.858;151.184;2023-04-24T05:18:52;11.68;;;2.40;;
16440;SDS011;8330;-33.858;151.184;2023-04-24T05:21:23;12.50;;;3.00;;
16440;SDS011;8330;-33.858;151.184;2023-04-24T05:23:54;11.45;;;2.40;;
16440;SDS011;8330;-33.858;151.184;2023-04-24T05:26:27;16.35;;;3.13;;
16440;SDS011;8330;-33.858;151.184;2023-04-24T05:28:59;15.07;;;3.10;;
16440;SDS011;8330;-33.858;151.184;2023-04-24T05:31:30;14.70;;;3.30;;
16440;SDS011;8330;-33.858;151.184;2023-04-24T05:34:01;10.75;;;2.75;;
16440;SDS011;8330;-33.858;151.184;2023-04-24T05:36:32;12.02;;;3.00;;
16440;SDS011;8330;-33.858;151.184;2023-04-24T05:39:03;14.68;;;3.17;;
16440;SDS011;8330;-33.858;151.184;2023-04-24T05:41:36;11.45;;;3.00;;
16440;SDS011;8330;-33.858;151.184;2023-04-24T05:44:08;13.35;;;2.72;;
16440;SDS011;8330;-33.858;151.184;2023-04-24T05:46:41;12.45;;;2.67;;
16440;SDS011;8330;-33.858;151.184;2023-04-24T05:49:19;11.57;;;2.88;;
16440;SDS011;8330;-33.858;151.184;2023-04-24T05:51:50;13.15;;;3.08;;
16440;SDS011;8330;-33.858;151.184;2023-04-24T05:54:21;11.90;;;2.88;;
16440;SDS011;8330;-33.858;151.184;2023-04-24T05:56:54;13.05;;;2.92;;
16440;SDS011;8330;-33.858;151.184;2023-04-24T05:59:27;12.35;;;2.85;;
16440;SDS011;8330;-33.858;151.184;2023-04-24T06:01:58;14.35;;;3.10;;
16440;SDS011;8330;-33.858;151.184;2023-04-24T06:04:32;13.55;;;3.08;;
16440;SDS011;8330;-33.858;151.184;2023-04-24T06:07:03;11.18;;;2.90;;
16440;SDS011;8330;-33.858;151.184;2023-04-24T06:09:34;17.23;;;3.17;;
16440;SDS011;8330;-33.858;151.184;2023-04-24T06:12:08;14.20;;;2.92;;
16440;SDS011;8330;-33.858;151.184;2023-04-24T06:14:39;11.18;;;2.63;;
16440;SDS011;8330;-33.858;151.184;2023-04-24T06:17:10;16.42;;;3.03;;
16440;SDS011;8330;-33.858;151.184;2023-04-24T06:19:42;10.65;;;2.72;;
16440;SDS011;8330;-33.858;151.184;2023-04-24T06:22:13;14.25;;;3.05;;
16440;SDS011;8330;-33.858;151.184;2023-04-24T06:24:44;12.20;;;2.90;;
16440;SDS011;8330;-33.858;151.184;2023-04-24T06:27:17;11.40;;;2.45;;
16440;SDS011;8330;-33.858;151.184;2023-04-24T06:29:48;12.85;;;2.60;;
16440;SDS011;8330;-33.858;151.184;2023-04-24T06:32:21;11.40;;;2.72;;
16440;SDS011;8330;-33.858;151.184;2023-04-24T06:34:53;13.63;;;2.90;;
16440;SDS011;8330;-33.858;151.184;2023-04-24T06:37:24;12.95;;;2.63;;
16440;SDS011;8330;-33.858;151.184;2023-04-24T06:39:55;11.55;;;2.63;;
16440;SDS011;8330;-33.858;151.184;2023-04-24T06:42:28;13.25;;;2.83;;
16440;SDS011;8330;-33.858;151.184;2023-04-24T06:45:01;12.70;;;2.85;;
16440;SDS011;8330;-33.858;151.184;2023-04-24T06:47:32;18.23;;;2.92;;
16440;SDS011;8330;-33.858;151.184;2023-04-24T06:50:04;11.60;;;2.72;;
16440;SDS011;8330;-33.858;151.184;2023-04-24T06:52:36;12.40;;;2.65;;
16440;SDS011;8330;-33.858;151.184;2023-04-24T06:55:08;13.65;;;2.50;;
16440;SDS011;8330;-33.858;151.184;2023-04-24T06:57:41;12.32;;;2.60;;
16440;SDS011;8330;-33.858;151.184;2023-04-24T07:00:13;11.18;;;2.50;;
16440;SDS011;8330;-33.858;151.184;2023-04-24T07:02:45;13.73;;;2.55;;
16440;SDS011;8330;-33.858;151.184;2023-04-24T07:05:16;12.55;;;2.67;;
16440;SDS011;8330;-33.858;151.184;2023-04-24T07:07:48;11.27;;;2.65;;
16440;SDS011;8330;-33.858;151.184;2023-04-24T07:10:19;8.32;;;2.22;;
16440;SDS011;8330;-33.858;151.184;2023-04-24T07:12:52;11.02;;;2.30;;
16440;SDS011;8330;-33.858;151.184;2023-04-24T07:15:23;10.35;;;2.20;;
16440;SDS011;8330;-33.858;151.184;2023-04-24T07:17:55;7.43;;;2.60;;
16440;SDS011;8330;-33.858;151.184;2023-04-24T07:20:26;9.73;;;2.08;;
16440;SDS011;8330;-33.858;151.184;2023-04-24T07:22:57;6.82;;;1.90;;
16440;SDS011;8330;-33.858;151.184;2023-04-24T07:25:28;6.13;;;1.55;;
16440;SDS011;8330;-33.858;151.184;2023-04-24T07:28:01;8.05;;;1.92;;
16440;SDS011;8330;-33.858;151.184;2023-04-24T07:30:33;7.57;;;1.65;;
16440;SDS011;8330;-33.858;151.184;2023-04-24T07:33:12;8.45;;;1.98;;
16440;SDS011;8330;-33.858;151.184;2023-04-24T07:35:43;6.07;;;1.67;;
16440;SDS011;8330;-33.858;151.184;2023-04-24T07:38:15;9.20;;;2.30;;
16440;SDS011;8330;-33.858;151.184;2023-04-24T07:40:50;4.97;;;1.50;;
16440;SDS011;8330;-33.858;151.184;2023-04-24T07:43:31;6.72;;;1.25;;
16440;SDS011;8330;-33.858;151.184;2023-04-24T07:46:02;9.07;;;1.70;;
16440;SDS011;8330;-33.858;151.184;2023-04-24T07:48:33;7.88;;;1.55;;
16440;SDS011;8330;-33.858;151.184;2023-04-24T07:51:05;6.90;;;1.73;;
16440;SDS011;8330;-33.858;151.184;2023-04-24T07:53:38;6.63;;;1.67;;
16440;SDS011;8330;-33.858;151.184;2023-04-24T07:56:09;7.88;;;1.90;;
16440;SDS011;8330;-33.858;151.184;2023-04-24T07:58:42;5.72;;;1.52;;
16440;SDS011;8330;-33.858;151.184;2023-04-24T08:01:14;4.50;;;1.65;;
16440;SDS011;8330;-33.858;151.184;2023-04-24T08:03:47;5.82;;;1.50;;
16440;SDS011;8330;-33.858;151.184;2023-04-24T08:06:18;6.20;;;1.50;;
16440;SDS011;8330;-33.858;151.184;2023-04-24T08:08:49;6.85;;;1.67;;
16440;SDS011;8330;-33.858;151.184;2023-04-24T08:11:20;6.20;;;1.67;;
16440;SDS011;8330;-33.858;151.184;2023-04-24T08:13:53;8.57;;;1.80;;
16440;SDS011;8330;-33.858;151.184;2023-04-24T08:16:26;7.97;;;2.63;;
16440;SDS011;8330;-33.858;151.184;2023-04-24T08:18:57;10.90;;;1.63;;
16440;SDS011;8330;-33.858;151.184;2023-04-24T08:21:28;11.63;;;1.90;;
16440;SDS011;8330;-33.858;151.184;2023-04-24T08:23:59;8.10;;;1.80;;
16440;SDS011;8330;-33.858;151.184;2023-04-24T08:26:33;9.25;;;1.95;;
16440;SDS011;8330;-33.858;151.184;2023-04-24T08:29:07;9.95;;;2.30;;
16440;SDS011;8330;-33.858;151.184;2023-04-24T08:31:38;7.38;;;1.83;;
16440;SDS011;8330;-33.858;151.184;2023-04-24T08:34:10;8.93;;;2.22;;
16440;SDS011;8330;-33.858;151.184;2023-04-24T08:36:41;8.75;;;2.15;;
16440;SDS011;8330;-33.858;151.184;2023-04-24T08:39:12;8.05;;;2.08;;
16440;SDS011;8330;-33.858;151.184;2023-04-24T08:41:44;8.48;;;2.20;;
16440;SDS011;8330;-33.858;151.184;2023-04-24T08:44:19;10.25;;;2.45;;
16440;SDS011;8330;-33.858;151.184;2023-04-24T08:46:50;12.50;;;3.13;;
16440;SDS011;8330;-33.858;151.184;2023-04-24T08:49:23;12.73;;;3.60;;
16440;SDS011;8330;-33.858;151.184;2023-04-24T08:51:56;10.65;;;2.67;;
16440;SDS011;8330;-33.858;151.184;2023-04-24T08:54:28;9.35;;;2.83;;
16440;SDS011;8330;-33.858;151.184;2023-04-24T08:57:03;13.15;;;3.03;;
16440;SDS011;8330;-33.858;151.184;2023-04-24T08:59:39;8.98;;;2.55;;
16440;SDS011;8330;-33.858;151.184;2023-04-24T09:02:12;14.52;;;3.17;;
16440;SDS011;8330;-33.858;151.184;2023-04-24T09:04:45;15.35;;;3.22;;
16440;SDS011;8330;-33.858;151.184;2023-04-24T09:07:18;12.90;;;2.88;;
16440;SDS011;8330;-33.858;151.184;2023-04-24T09:09:51;11.50;;;2.72;;
16440;SDS011;8330;-33.858;151.184;2023-04-24T09:12:23;11.30;;;2.65;;
16440;SDS011;8330;-33.858;151.184;2023-04-24T09:14:56;11.95;;;3.00;;
16440;SDS011;8330;-33.858;151.184;2023-04-24T09:17:27;11.10;;;3.03;;
16440;SDS011;8330;-33.858;151.184;2023-04-24T09:19:59;11.18;;;3.10;;
16440;SDS011;8330;-33.858;151.184;2023-04-24T09:22:30;11.65;;;2.97;;
16440;SDS011;8330;-33.858;151.184;2023-04-24T09:25:04;12.18;;;2.60;;
16440;SDS011;8330;-33.858;151.184;2023-04-24T09:27:41;10.48;;;2.70;;
16440;SDS011;8330;-33.858;151.184;2023-04-24T09:30:18;13.60;;;2.90;;
16440;SDS011;8330;-33.858;151.184;2023-04-24T09:32:54;14.63;;;3.15;;
16440;SDS011;8330;-33.858;151.184;2023-04-24T09:35:41;10.45;;;2.42;;
16440;SDS011;8330;-33.858;151.184;2023-04-24T09:38:17;11.38;;;2.80;;
16440;SDS011;8330;-33.858;151.184;2023-04-24T09:40:54;14.63;;;2.75;;
16440;SDS011;8330;-33.858;151.184;2023-04-24T09:43:28;7.70;;;2.40;;
16440;SDS011;8330;-33.858;151.184;2023-04-24T09:46:03;11.85;;;2.78;;
16440;SDS011;8330;-33.858;151.184;2023-04-24T09:48:36;11.10;;;2.63;;
16440;SDS011;8330;-33.858;151.184;2023-04-24T09:51:07;12.75;;;3.20;;
16440;SDS011;8330;-33.858;151.184;2023-04-24T09:53:38;9.32;;;2.95;;
16440;SDS011;8330;-33.858;151.184;2023-04-24T09:56:14;10.40;;;2.88;;
16440;SDS011;8330;-33.858;151.184;2023-04-24T09:58:46;12.80;;;3.00;;
16440;SDS011;8330;-33.858;151.184;2023-04-24T10:01:22;13.57;;;3.10;;
16440;SDS011;8330;-33.858;151.184;2023-04-24T10:04:00;10.35;;;2.92;;
16440;SDS011;8330;-33.858;151.184;2023-04-24T10:06:34;8.98;;;2.30;;
16440;SDS011;8330;-33.858;151.184;2023-04-24T10:09:05;9.90;;;2.67;;
16440;SDS011;8330;-33.858;151.184;2023-04-24T10:11:38;9.60;;;2.38;;
16440;SDS011;8330;-33.858;151.184;2023-04-24T10:14:12;8.75;;;2.42;;
16440;SDS011;8330;-33.858;151.184;2023-04-24T10:16:48;9.45;;;2.42;;
16440;SDS011;8330;-33.858;151.184;2023-04-24T10:19:22;7.32;;;2.38;;
16440;SDS011;8330;-33.858;151.184;2023-04-24T10:21:58;8.93;;;2.28;;
16440;SDS011;8330;-33.858;151.184;2023-04-24T10:24:30;8.88;;;2.30;;
16440;SDS011;8330;-33.858;151.184;2023-04-24T10:27:03;9.02;;;2.20;;
16440;SDS011;8330;-33.858;151.184;2023-04-24T10:29:37;7.22;;;1.98;;
16440;SDS011;8330;-33.858;151.184;2023-04-24T10:32:12;6.75;;;2.03;;
16440;SDS011;8330;-33.858;151.184;2023-04-24T10:34:46;8.30;;;2.22;;
16440;SDS011;8330;-33.858;151.184;2023-04-24T10:37:17;6.53;;;1.98;;
16440;SDS011;8330;-33.858;151.184;2023-04-24T10:39:48;6.75;;;1.80;;
16440;SDS011;8330;-33.858;151.184;2023-04-24T10:42:20;7.72;;;1.95;;
16440;SDS011;8330;-33.858;151.184;2023-04-24T10:44:52;8.55;;;1.75;;
16440;SDS011;8330;-33.858;151.184;2023-04-24T10:47:26;11.70;;;2.55;;
16440;SDS011;8330;-33.858;151.184;2023-04-24T10:49:59;9.23;;;2.60;;
16440;SDS011;8330;-33.858;151.184;2023-04-24T10:52:43;5.82;;;1.98;;
16440;SDS011;8330;-33.858;151.184;2023-04-24T10:55:17;9.80;;;2.17;;
16440;SDS011;8330;-33.858;151.184;2023-04-24T10:58:11;7.38;;;2.30;;
16440;SDS011;8330;-33.858;151.184;2023-04-24T11:00:43;7.57;;;1.77;;
16440;SDS011;8330;-33.858;151.184;2023-04-24T11:03:27;10.60;;;2.20;;
16440;SDS011;8330;-33.858;151.184;2023-04-24T11:05:59;8.15;;;1.77;;
16440;SDS011;8330;-33.858;151.184;2023-04-24T11:08:32;6.88;;;2.10;;
16440;SDS011;8330;-33.858;151.184;2023-04-24T11:11:09;7.55;;;2.00;;
16440;SDS011;8330;-33.858;151.184;2023-04-24T11:16:45;7.28;;;2.10;;
16440;SDS011;8330;-33.858;151.184;2023-04-24T11:19:24;7.28;;;2.08;;
16440;SDS011;8330;-33.858;151.184;2023-04-24T11:21:57;7.72;;;2.20;;
16440;SDS011;8330;-33.858;151.184;2023-04-24T11:24:33;9.48;;;2.45;;
16440;SDS011;8330;-33.858;151.184;2023-04-24T11:27:12;7.80;;;2.10;;
16440;SDS011;8330;-33.858;151.184;2023-04-24T11:29:46;7.25;;;2.10;;
16440;SDS011;8330;-33.858;151.184;2023-04-24T11:32:19;9.45;;;2.00;;
16440;SDS011;8330;-33.858;151.184;2023-04-24T11:34:56;5.80;;;2.20;;
16440;SDS011;8330;-33.858;151.184;2023-04-24T11:37:29;8.57;;;2.42;;
16440;SDS011;8330;-33.858;151.184;2023-04-24T11:40:03;9.15;;;2.40;;
16440;SDS011;8330;-33.858;151.184;2023-04-24T11:42:36;6.68;;;2.08;;
16440;SDS011;8330;-33.858;151.184;2023-04-24T11:45:10;7.15;;;2.08;;
16440;SDS011;8330;-33.858;151.184;2023-04-24T11:47:45;7.00;;;1.80;;
16440;SDS011;8330;-33.858;151.184;2023-04-24T11:50:19;6.97;;;2.00;;
16440;SDS011;8330;-33.858;151.184;2023-04-24T11:52:55;8.32;;;2.20;;
16440;SDS011;8330;-33.858;151.184;2023-04-24T11:55:26;9.43;;;2.20;;
16440;SDS011;8330;-33.858;151.184;2023-04-24T11:57:58;7.70;;;2.08;;
16440;SDS011;8330;-33.858;151.184;2023-04-24T12:00:34;5.70;;;2.08;;
16440;SDS011;8330;-33.858;151.184;2023-04-24T12:03:06;7.65;;;2.20;;
16440;SDS011;8330;-33.858;151.184;2023-04-24T12:05:49;8.00;;;2.30;;
16440;SDS011;8330;-33.858;151.184;2023-04-24T12:08:27;7.63;;;2.38;;
16440;SDS011;8330;-33.858;151.184;2023-04-24T12:10:58;7.28;;;2.22;;
16440;SDS011;8330;-33.858;151.184;2023-04-24T12:13:30;5.43;;;1.95;;
16440;SDS011;8330;-33.858;151.184;2023-04-24T12:16:02;7.22;;;1.92;;
16440;SDS011;8330;-33.858;151.184;2023-04-24T12:18:41;6.72;;;2.20;;
16440;SDS011;8330;-33.858;151.184;2023-04-24T12:21:19;7.47;;;2.28;;
16440;SDS011;8330;-33.858;151.184;2023-04-24T12:23:54;8.82;;;2.17;;
16440;SDS011;8330;-33.858;151.184;2023-04-24T12:26:26;5.65;;;2.10;;
16440;SDS011;8330;-33.858;151.184;2023-04-24T12:29:01;5.03;;;2.10;;
16440;SDS011;8330;-33.858;151.184;2023-04-24T12:31:34;7.47;;;2.40;;
16440;SDS011;8330;-33.858;151.184;2023-04-24T12:34:06;7.65;;;2.28;;
16440;SDS011;8330;-33.858;151.184;2023-04-24T12:36:50;4.80;;;2.20;;
16440;SDS011;8330;-33.858;151.184;2023-04-24T12:39:22;8.02;;;2.30;;
16440;SDS011;8330;-33.858;151.184;2023-04-24T12:41:56;8.68;;;2.30;;
16440;SDS011;8330;-33.858;151.184;2023-04-24T12:44:31;9.63;;;2.30;;
16440;SDS011;8330;-33.858;151.184;2023-04-24T12:47:03;6.03;;;2.25;;
16440;SDS011;8330;-33.858;151.184;2023-04-24T12:49:38;8.02;;;2.30;;
16440;SDS011;8330;-33.858;151.184;2023-04-24T12:52:11;5.70;;;2.03;;
16440;SDS011;8330;-33.858;151.184;2023-04-24T12:54:43;8.00;;;2.30;;
16440;SDS011;8330;-33.858;151.184;2023-04-24T12:57:14;9.35;;;2.42;;
16440;SDS011;8330;-33.858;151.184;2023-04-24T12:59:45;8.65;;;2.30;;
16440;SDS011;8330;-33.858;151.184;2023-04-24T13:02:16;10.90;;;2.65;;
16440;SDS011;8330;-33.858;151.184;2023-04-24T13:04:48;6.97;;;2.20;;
16440;SDS011;8330;-33.858;151.184;2023-04-24T13:07:22;10.13;;;2.20;;
16440;SDS011;8330;-33.858;151.184;2023-04-24T13:09:55;6.47;;;2.15;;
16440;SDS011;8330;-33.858;151.184;2023-04-24T13:12:26;8.60;;;2.53;;
16440;SDS011;8330;-33.858;151.184;2023-04-24T13:14:57;9.55;;;2.53;;
16440;SDS011;8330;-33.858;151.184;2023-04-24T13:17:29;8.93;;;2.40;;
16440;SDS011;8330;-33.858;151.184;2023-04-24T13:20:00;12.50;;;3.08;;
16440;SDS011;8330;-33.858;151.184;2023-04-24T13:22:33;9.68;;;2.63;;
16440;SDS011;8330;-33.858;151.184;2023-04-24T13:25:05;11.38;;;2.60;;
16440;SDS011;8330;-33.858;151.184;2023-04-24T13:27:38;9.23;;;2.60;;
16440;SDS011;8330;-33.858;151.184;2023-04-24T13:30:09;9.65;;;2.83;;
16440;SDS011;8330;-33.858;151.184;2023-04-24T13:32:41;9.57;;;2.40;;
16440;SDS011;8330;-33.858;151.184;2023-04-24T13:35:12;9.70;;;2.75;;
16440;SDS011;8330;-33.858;151.184;2023-04-24T13:37:45;7.63;;;2.40;;
16440;SDS011;8330;-33.858;151.184;2023-04-24T13:40:17;11.27;;;2.78;;
16440;SDS011;8330;-33.858;151.184;2023-04-24T13:42:48;11.00;;;2.90;;
16440;SDS011;8330;-33.858;151.184;2023-04-24T13:45:19;11.80;;;3.22;;
16440;SDS011;8330;-33.858;151.184;2023-04-24T13:47:50;10.07;;;2.30;;
16440;SDS011;8330;-33.858;151.184;2023-04-24T13:50:23;7.90;;;2.65;;
16440;SDS011;8330;-33.858;151.184;2023-04-24T13:52:56;9.68;;;2.88;;
16440;SDS011;8330;-33.858;151.184;2023-04-24T13:55:28;11.05;;;2.95;;
16440;SDS011;8330;-33.858;151.184;2023-04-24T13:57:59;9.35;;;2.80;;
16440;SDS011;8330;-33.858;151.184;2023-04-24T14:00:30;8.13;;;2.80;;
16440;SDS011;8330;-33.858;151.184;2023-04-24T14:03:01;9.43;;;3.05;;
16440;SDS011;8330;-33.858;151.184;2023-04-24T14:05:32;8.05;;;2.35;;
16440;SDS011;8330;-33.858;151.184;2023-04-24T14:08:05;8.82;;;2.50;;
16440;SDS011;8330;-33.858;151.184;2023-04-24T14:10:36;8.00;;;2.47;;
16440;SDS011;8330;-33.858;151.184;2023-04-24T14:13:08;6.45;;;2.30;;
16440;SDS011;8330;-33.858;151.184;2023-04-24T14:15:39;8.90;;;2.72;;
16440;SDS011;8330;-33.858;151.184;2023-04-24T14:18:10;11.10;;;2.97;;
16440;SDS011;8330;-33.858;151.184;2023-04-24T14:20:42;8.85;;;2.85;;
16440;SDS011;8330;-33.858;151.184;2023-04-24T14:23:15;10.95;;;3.08;;
16440;SDS011;8330;-33.858;151.184;2023-04-24T14:25:46;11.60;;;3.08;;
16440;SDS011;8330;-33.858;151.184;2023-04-24T14:28:18;11.15;;;2.78;;
16440;SDS011;8330;-33.858;151.184;2023-04-24T14:30:50;8.95;;;3.22;;
16440;SDS011;8330;-33.858;151.184;2023-04-24T14:33:21;9.32;;;3.25;;
16440;SDS011;8330;-33.858;151.184;2023-04-24T14:35:53;11.57;;;3.25;;
16440;SDS011;8330;-33.858;151.184;2023-04-24T14:38:26;10.85;;;3.50;;
16440;SDS011;8330;-33.858;151.184;2023-04-24T14:40:57;9.63;;;2.90;;
16440;SDS011;8330;-33.858;151.184;2023-04-24T14:43:34;7.68;;;2.70;;
16440;SDS011;8330;-33.858;151.184;2023-04-24T14:46:05;6.35;;;2.60;;
16440;SDS011;8330;-33.858;151.184;2023-04-24T14:48:37;11.05;;;3.00;;
16440;SDS011;8330;-33.858;151.184;2023-04-24T14:51:08;10.55;;;2.88;;
16440;SDS011;8330;-33.858;151.184;2023-04-24T14:53:41;7.45;;;2.70;;